sensor_id;sensor_type;location;lat;lon;timestamp;P1;durP1;ratioP1;P2;durP2;ratioP2
52180;SDS011;38158;53.338;6.514;2024-01-30T00:01:49;22.13;;;16.25;;
52180;SDS011;38158;53.338;6.514;2024-01-30T00:04:15;23.38;;;16.73;;
52180;SDS011;38158;53.338;6.514;2024-01-30T00:06:42;22.92;;;17.17;;
52180;SDS011;38158;53.338;6.514;2024-01-30T00:09:08;23.40;;;17.43;;
52180;SDS011;38158;53.338;6.514;2024-01-30T00:11:35;25.20;;;17.58;;
52180;SDS011;38158;53.338;6.514;2024-01-30T00:14:01;22.85;;;16.30;;
52180;SDS011;38158;53.338;6.514;2024-01-30T00:16:27;23.55;;;17.80;;
52180;SDS011;38158;53.338;6.514;2024-01-30T00:18:53;23.20;;;17.60;;
52180;SDS011;38158;53.338;6.514;2024-01-30T00:21:19;22.52;;;16.77;;
52180;SDS011;38158;53.338;6.514;2024-01-30T00:23:46;20.90;;;17.27;;
52180;SDS011;38158;53.338;6.514;2024-01-30T00:26:11;21.77;;;15.80;;
52180;SDS011;38158;53.338;6.514;2024-01-30T00:28:38;24.63;;;17.20;;
52180;SDS011;38158;53.338;6.514;2024-01-30T00:31:03;23.35;;;16.70;;
52180;SDS011;38158;53.338;6.514;2024-01-30T00:33:29;24.92;;;17.17;;
52180;SDS011;38158;53.338;6.514;2024-01-30T00:35:55;21.17;;;17.02;;
52180;SDS011;38158;53.338;6.514;2024-01-30T00:38:21;26.98;;;17.15;;
52180;SDS011;38158;53.338;6.514;2024-01-30T00:40:47;20.88;;;17.08;;
52180;SDS011;38158;53.338;6.514;2024-01-30T00:43:13;24.55;;;16.88;;
52180;SDS011;38158;53.338;6.514;2024-01-30T00:45:39;24.35;;;16.48;;
52180;SDS011;38158;53.338;6.514;2024-01-30T00:48:04;22.67;;;16.95;;
52180;SDS011;38158;53.338;6.514;2024-01-30T00:50:30;24.55;;;17.25;;
52180;SDS011;38158;53.338;6.514;2024-01-30T00:52:56;22.38;;;16.75;;
52180;SDS011;38158;53.338;6.514;2024-01-30T00:55:22;24.90;;;18.27;;
52180;SDS011;38158;53.338;6.514;2024-01-30T00:57:47;26.42;;;17.92;;
52180;SDS011;38158;53.338;6.514;2024-01-30T01:00:13;22.65;;;17.42;;
52180;SDS011;38158;53.338;6.514;2024-01-30T01:02:42;29.33;;;17.55;;
52180;SDS011;38158;53.338;6.514;2024-01-30T01:05:08;22.67;;;18.33;;
52180;SDS011;38158;53.338;6.514;2024-01-30T01:07:34;28.23;;;19.17;;
52180;SDS011;38158;53.338;6.514;2024-01-30T01:10:00;26.40;;;18.67;;
52180;SDS011;38158;53.338;6.514;2024-01-30T01:12:25;23.98;;;17.98;;
52180;SDS011;38158;53.338;6.514;2024-01-30T01:14:51;23.20;;;18.20;;
52180;SDS011;38158;53.338;6.514;2024-01-30T01:17:17;23.10;;;17.20;;
52180;SDS011;38158;53.338;6.514;2024-01-30T01:19:43;24.02;;;18.33;;
52180;SDS011;38158;53.338;6.514;2024-01-30T01:22:09;31.25;;;18.20;;
52180;SDS011;38158;53.338;6.514;2024-01-30T01:24:35;23.52;;;18.67;;
52180;SDS011;38158;53.338;6.514;2024-01-30T01:27:01;26.08;;;19.08;;
52180;SDS011;38158;53.338;6.514;2024-01-30T01:29:28;25.60;;;18.88;;
52180;SDS011;38158;53.338;6.514;2024-01-30T01:31:54;25.87;;;19.13;;
52180;SDS011;38158;53.338;6.514;2024-01-30T01:34:21;25.77;;;17.80;;
52180;SDS011;38158;53.338;6.514;2024-01-30T01:36:47;25.52;;;19.30;;
52180;SDS011;38158;53.338;6.514;2024-01-30T01:39:12;26.17;;;18.67;;
52180;SDS011;38158;53.338;6.514;2024-01-30T01:41:38;25.17;;;18.92;;
52180;SDS011;38158;53.338;6.514;2024-01-30T01:44:03;25.30;;;17.70;;
52180;SDS011;38158;53.338;6.514;2024-01-30T01:46:30;30.30;;;19.67;;
52180;SDS011;38158;53.338;6.514;2024-01-30T01:48:58;24.65;;;19.58;;
52180;SDS011;38158;53.338;6.514;2024-01-30T01:51:24;26.98;;;18.25;;
52180;SDS011;38158;53.338;6.514;2024-01-30T01:53:53;26.15;;;19.13;;
52180;SDS011;38158;53.338;6.514;2024-01-30T01:56:21;26.02;;;18.45;;
52180;SDS011;38158;53.338;6.514;2024-01-30T01:58:51;24.42;;;18.10;;
52180;SDS011;38158;53.338;6.514;2024-01-30T02:01:20;27.15;;;19.48;;
52180;SDS011;38158;53.338;6.514;2024-01-30T02:03:46;24.40;;;18.15;;
52180;SDS011;38158;53.338;6.514;2024-01-30T02:06:13;25.97;;;18.10;;
52180;SDS011;38158;53.338;6.514;2024-01-30T02:08:41;25.98;;;19.15;;
52180;SDS011;38158;53.338;6.514;2024-01-30T02:11:07;28.70;;;19.52;;
52180;SDS011;38158;53.338;6.514;2024-01-30T02:13:34;24.08;;;18.40;;
52180;SDS011;38158;53.338;6.514;2024-01-30T02:16:00;25.25;;;19.27;;
52180;SDS011;38158;53.338;6.514;2024-01-30T02:18:26;25.88;;;18.75;;
52180;SDS011;38158;53.338;6.514;2024-01-30T02:20:53;24.88;;;18.63;;
52180;SDS011;38158;53.338;6.514;2024-01-30T02:23:21;27.83;;;19.35;;
52180;SDS011;38158;53.338;6.514;2024-01-30T02:25:49;28.15;;;19.65;;
52180;SDS011;38158;53.338;6.514;2024-01-30T02:28:18;28.10;;;19.85;;
52180;SDS011;38158;53.338;6.514;2024-01-30T02:30:45;26.45;;;19.48;;
52180;SDS011;38158;53.338;6.514;2024-01-30T02:33:11;28.10;;;20.42;;
52180;SDS011;38158;53.338;6.514;2024-01-30T02:35:37;24.83;;;18.87;;
52180;SDS011;38158;53.338;6.514;2024-01-30T02:38:04;27.55;;;19.83;;
52180;SDS011;38158;53.338;6.514;2024-01-30T02:40:30;27.98;;;18.73;;
52180;SDS011;38158;53.338;6.514;2024-01-30T02:42:56;28.40;;;19.48;;
52180;SDS011;38158;53.338;6.514;2024-01-30T02:45:22;24.92;;;19.02;;
52180;SDS011;38158;53.338;6.514;2024-01-30T02:47:48;25.70;;;19.00;;
52180;SDS011;38158;53.338;6.514;2024-01-30T02:50:14;25.63;;;20.00;;
52180;SDS011;38158;53.338;6.514;2024-01-30T02:52:40;27.23;;;19.23;;
52180;SDS011;38158;53.338;6.514;2024-01-30T02:55:06;25.98;;;18.90;;
52180;SDS011;38158;53.338;6.514;2024-01-30T02:57:31;28.17;;;19.63;;
52180;SDS011;38158;53.338;6.514;2024-01-30T02:59:57;25.90;;;19.48;;
52180;SDS011;38158;53.338;6.514;2024-01-30T03:02:23;24.58;;;18.70;;
52180;SDS011;38158;53.338;6.514;2024-01-30T03:04:48;25.58;;;18.75;;
52180;SDS011;38158;53.338;6.514;2024-01-30T03:07:14;26.15;;;19.08;;
52180;SDS011;38158;53.338;6.514;2024-01-30T03:09:41;27.60;;;19.17;;
52180;SDS011;38158;53.338;6.514;2024-01-30T03:12:08;22.15;;;17.95;;
52180;SDS011;38158;53.338;6.514;2024-01-30T03:14:34;27.27;;;18.23;;
52180;SDS011;38158;53.338;6.514;2024-01-30T03:17:00;23.52;;;17.67;;
52180;SDS011;38158;53.338;6.514;2024-01-30T03:19:25;23.73;;;18.05;;
52180;SDS011;38158;53.338;6.514;2024-01-30T03:21:51;26.67;;;18.77;;
52180;SDS011;38158;53.338;6.514;2024-01-30T03:24:17;26.33;;;18.27;;
52180;SDS011;38158;53.338;6.514;2024-01-30T03:26:43;25.50;;;17.95;;
52180;SDS011;38158;53.338;6.514;2024-01-30T03:29:09;23.83;;;18.63;;
52180;SDS011;38158;53.338;6.514;2024-01-30T03:31:35;26.85;;;18.02;;
52180;SDS011;38158;53.338;6.514;2024-01-30T03:34:01;24.58;;;18.27;;
52180;SDS011;38158;53.338;6.514;2024-01-30T03:36:27;25.98;;;18.35;;
52180;SDS011;38158;53.338;6.514;2024-01-30T03:38:53;23.27;;;18.08;;
52180;SDS011;38158;53.338;6.514;2024-01-30T03:41:19;22.23;;;17.52;;
52180;SDS011;38158;53.338;6.514;2024-01-30T03:43:44;22.75;;;17.80;;
52180;SDS011;38158;53.338;6.514;2024-01-30T03:46:12;22.08;;;16.63;;
52180;SDS011;38158;53.338;6.514;2024-01-30T03:48:38;23.50;;;17.98;;
52180;SDS011;38158;53.338;6.514;2024-01-30T03:51:04;24.08;;;18.65;;
52180;SDS011;38158;53.338;6.514;2024-01-30T03:53:30;24.40;;;18.27;;
52180;SDS011;38158;53.338;6.514;2024-01-30T03:55:56;23.83;;;17.88;;
52180;SDS011;38158;53.338;6.514;2024-01-30T03:58:22;26.15;;;18.50;;
52180;SDS011;38158;53.338;6.514;2024-01-30T04:00:48;24.70;;;17.58;;
52180;SDS011;38158;53.338;6.514;2024-01-30T04:03:16;24.30;;;17.92;;
52180;SDS011;38158;53.338;6.514;2024-01-30T04:05:42;21.77;;;16.20;;
52180;SDS011;38158;53.338;6.514;2024-01-30T04:08:09;23.17;;;16.95;;
52180;SDS011;38158;53.338;6.514;2024-01-30T04:10:35;23.77;;;17.58;;
52180;SDS011;38158;53.338;6.514;2024-01-30T04:13:00;23.38;;;17.35;;
52180;SDS011;38158;53.338;6.514;2024-01-30T04:15:26;24.38;;;17.20;;
52180;SDS011;38158;53.338;6.514;2024-01-30T04:17:53;23.23;;;17.88;;
52180;SDS011;38158;53.338;6.514;2024-01-30T04:20:18;24.90;;;17.23;;
52180;SDS011;38158;53.338;6.514;2024-01-30T04:22:46;23.85;;;17.17;;
52180;SDS011;38158;53.338;6.514;2024-01-30T04:25:12;25.25;;;18.15;;
52180;SDS011;38158;53.338;6.514;2024-01-30T04:27:39;27.50;;;16.85;;
52180;SDS011;38158;53.338;6.514;2024-01-30T04:30:04;21.27;;;15.70;;
52180;SDS011;38158;53.338;6.514;2024-01-30T04:32:31;23.08;;;16.33;;
52180;SDS011;38158;53.338;6.514;2024-01-30T04:34:57;23.38;;;17.27;;
52180;SDS011;38158;53.338;6.514;2024-01-30T04:37:23;23.52;;;16.77;;
52180;SDS011;38158;53.338;6.514;2024-01-30T04:39:49;21.10;;;16.07;;
52180;SDS011;38158;53.338;6.514;2024-01-30T04:42:15;26.63;;;17.15;;
52180;SDS011;38158;53.338;6.514;2024-01-30T04:44:41;21.80;;;16.10;;
52180;SDS011;38158;53.338;6.514;2024-01-30T04:47:07;22.20;;;17.27;;
52180;SDS011;38158;53.338;6.514;2024-01-30T04:49:34;21.13;;;16.10;;
52180;SDS011;38158;53.338;6.514;2024-01-30T04:52:00;22.42;;;16.00;;
52180;SDS011;38158;53.338;6.514;2024-01-30T04:54:25;20.48;;;15.43;;
52180;SDS011;38158;53.338;6.514;2024-01-30T04:56:51;22.00;;;17.17;;
52180;SDS011;38158;53.338;6.514;2024-01-30T04:59:17;22.50;;;16.60;;
52180;SDS011;38158;53.338;6.514;2024-01-30T05:01:43;19.93;;;15.63;;
52180;SDS011;38158;53.338;6.514;2024-01-30T05:04:09;21.95;;;16.65;;
52180;SDS011;38158;53.338;6.514;2024-01-30T05:06:36;20.27;;;15.88;;
52180;SDS011;38158;53.338;6.514;2024-01-30T05:09:02;19.60;;;15.60;;
52180;SDS011;38158;53.338;6.514;2024-01-30T05:13:55;19.35;;;14.57;;
52180;SDS011;38158;53.338;6.514;2024-01-30T05:16:20;20.02;;;15.45;;
52180;SDS011;38158;53.338;6.514;2024-01-30T05:18:46;20.73;;;15.40;;
52180;SDS011;38158;53.338;6.514;2024-01-30T05:21:12;20.75;;;14.77;;
52180;SDS011;38158;53.338;6.514;2024-01-30T05:23:38;20.70;;;15.68;;
52180;SDS011;38158;53.338;6.514;2024-01-30T05:26:03;20.95;;;16.48;;
52180;SDS011;38158;53.338;6.514;2024-01-30T05:28:29;21.15;;;16.20;;
52180;SDS011;38158;53.338;6.514;2024-01-30T05:30:55;21.10;;;15.73;;
52180;SDS011;38158;53.338;6.514;2024-01-30T05:33:21;20.98;;;15.30;;
52180;SDS011;38158;53.338;6.514;2024-01-30T05:35:47;19.08;;;14.90;;
52180;SDS011;38158;53.338;6.514;2024-01-30T05:38:13;21.48;;;15.60;;
52180;SDS011;38158;53.338;6.514;2024-01-30T05:40:40;18.02;;;14.02;;
52180;SDS011;38158;53.338;6.514;2024-01-30T05:43:06;21.50;;;15.07;;
52180;SDS011;38158;53.338;6.514;2024-01-30T05:45:33;23.58;;;15.18;;
52180;SDS011;38158;53.338;6.514;2024-01-30T05:50:25;17.15;;;13.50;;
52180;SDS011;38158;53.338;6.514;2024-01-30T05:52:52;18.45;;;13.98;;
52180;SDS011;38158;53.338;6.514;2024-01-30T05:55:18;19.38;;;15.27;;
52180;SDS011;38158;53.338;6.514;2024-01-30T05:57:43;18.92;;;15.05;;
52180;SDS011;38158;53.338;6.514;2024-01-30T06:00:09;19.98;;;16.05;;
52180;SDS011;38158;53.338;6.514;2024-01-30T06:02:36;19.50;;;15.50;;
52180;SDS011;38158;53.338;6.514;2024-01-30T06:05:01;20.15;;;15.35;;
52180;SDS011;38158;53.338;6.514;2024-01-30T06:07:27;22.75;;;15.65;;
52180;SDS011;38158;53.338;6.514;2024-01-30T06:09:53;21.63;;;15.88;;
52180;SDS011;38158;53.338;6.514;2024-01-30T06:12:19;20.13;;;15.30;;
52180;SDS011;38158;53.338;6.514;2024-01-30T06:14:45;18.17;;;14.18;;
52180;SDS011;38158;53.338;6.514;2024-01-30T06:17:10;20.10;;;15.52;;
52180;SDS011;38158;53.338;6.514;2024-01-30T06:19:37;21.47;;;14.93;;
52180;SDS011;38158;53.338;6.514;2024-01-30T06:22:04;21.45;;;15.30;;
52180;SDS011;38158;53.338;6.514;2024-01-30T06:24:29;19.17;;;14.80;;
52180;SDS011;38158;53.338;6.514;2024-01-30T06:26:55;21.15;;;15.63;;
52180;SDS011;38158;53.338;6.514;2024-01-30T06:29:21;20.00;;;15.07;;
52180;SDS011;38158;53.338;6.514;2024-01-30T06:31:47;20.90;;;14.85;;
52180;SDS011;38158;53.338;6.514;2024-01-30T06:34:12;19.48;;;15.30;;
52180;SDS011;38158;53.338;6.514;2024-01-30T06:36:38;18.90;;;14.95;;
52180;SDS011;38158;53.338;6.514;2024-01-30T06:39:04;21.45;;;14.35;;
52180;SDS011;38158;53.338;6.514;2024-01-30T06:41:30;17.73;;;14.07;;
52180;SDS011;38158;53.338;6.514;2024-01-30T06:43:56;21.20;;;15.43;;
52180;SDS011;38158;53.338;6.514;2024-01-30T06:46:22;18.35;;;15.05;;
52180;SDS011;38158;53.338;6.514;2024-01-30T06:48:47;20.73;;;15.82;;
52180;SDS011;38158;53.338;6.514;2024-01-30T06:51:13;17.05;;;14.43;;
52180;SDS011;38158;53.338;6.514;2024-01-30T06:53:39;21.85;;;15.23;;
52180;SDS011;38158;53.338;6.514;2024-01-30T06:56:05;21.20;;;15.18;;
52180;SDS011;38158;53.338;6.514;2024-01-30T06:58:31;18.30;;;14.50;;
52180;SDS011;38158;53.338;6.514;2024-01-30T07:00:57;19.20;;;14.30;;
52180;SDS011;38158;53.338;6.514;2024-01-30T07:03:23;17.60;;;14.35;;
52180;SDS011;38158;53.338;6.514;2024-01-30T07:05:49;18.55;;;14.68;;
52180;SDS011;38158;53.338;6.514;2024-01-30T07:08:15;18.58;;;13.70;;
52180;SDS011;38158;53.338;6.514;2024-01-30T07:10:44;19.60;;;13.77;;
52180;SDS011;38158;53.338;6.514;2024-01-30T07:13:10;18.90;;;14.05;;
52180;SDS011;38158;53.338;6.514;2024-01-30T07:15:36;19.25;;;14.52;;
52180;SDS011;38158;53.338;6.514;2024-01-30T07:18:03;17.10;;;13.85;;
52180;SDS011;38158;53.338;6.514;2024-01-30T07:20:30;21.20;;;14.50;;
52180;SDS011;38158;53.338;6.514;2024-01-30T07:22:57;17.23;;;13.65;;
52180;SDS011;38158;53.338;6.514;2024-01-30T07:25:23;18.75;;;13.27;;
52180;SDS011;38158;53.338;6.514;2024-01-30T07:27:52;20.65;;;15.07;;
52180;SDS011;38158;53.338;6.514;2024-01-30T07:30:19;20.50;;;15.03;;
52180;SDS011;38158;53.338;6.514;2024-01-30T07:32:45;17.80;;;13.88;;
52180;SDS011;38158;53.338;6.514;2024-01-30T07:35:11;21.65;;;14.57;;
52180;SDS011;38158;53.338;6.514;2024-01-30T07:37:37;19.13;;;13.40;;
52180;SDS011;38158;53.338;6.514;2024-01-30T07:40:03;19.52;;;14.00;;
52180;SDS011;38158;53.338;6.514;2024-01-30T07:42:29;17.85;;;13.80;;
52180;SDS011;38158;53.338;6.514;2024-01-30T07:44:55;19.55;;;14.00;;
52180;SDS011;38158;53.338;6.514;2024-01-30T07:47:21;18.23;;;13.95;;
52180;SDS011;38158;53.338;6.514;2024-01-30T07:49:46;19.25;;;13.73;;
52180;SDS011;38158;53.338;6.514;2024-01-30T07:52:12;24.17;;;15.07;;
52180;SDS011;38158;53.338;6.514;2024-01-30T07:54:47;19.00;;;14.52;;
52180;SDS011;38158;53.338;6.514;2024-01-30T07:57:14;18.30;;;13.55;;
52180;SDS011;38158;53.338;6.514;2024-01-30T07:59:41;17.85;;;12.75;;
52180;SDS011;38158;53.338;6.514;2024-01-30T08:02:09;19.15;;;13.93;;
52180;SDS011;38158;53.338;6.514;2024-01-30T08:04:34;17.25;;;12.68;;
52180;SDS011;38158;53.338;6.514;2024-01-30T08:07:00;18.40;;;13.20;;
52180;SDS011;38158;53.338;6.514;2024-01-30T08:09:26;20.33;;;13.93;;
52180;SDS011;38158;53.338;6.514;2024-01-30T08:11:51;15.82;;;12.32;;
52180;SDS011;38158;53.338;6.514;2024-01-30T08:14:17;19.67;;;13.65;;
52180;SDS011;38158;53.338;6.514;2024-01-30T08:16:43;20.13;;;12.57;;
52180;SDS011;38158;53.338;6.514;2024-01-30T08:19:09;16.25;;;12.45;;
52180;SDS011;38158;53.338;6.514;2024-01-30T08:21:34;16.17;;;12.30;;
52180;SDS011;38158;53.338;6.514;2024-01-30T08:24:04;18.02;;;12.20;;
52180;SDS011;38158;53.338;6.514;2024-01-30T08:26:34;18.33;;;12.65;;
52180;SDS011;38158;53.338;6.514;2024-01-30T08:29:00;18.50;;;11.57;;
52180;SDS011;38158;53.338;6.514;2024-01-30T08:31:26;15.07;;;11.65;;
52180;SDS011;38158;53.338;6.514;2024-01-30T08:33:52;18.50;;;13.45;;
52180;SDS011;38158;53.338;6.514;2024-01-30T08:36:18;17.80;;;13.07;;
52180;SDS011;38158;53.338;6.514;2024-01-30T08:38:44;17.23;;;12.48;;
52180;SDS011;38158;53.338;6.514;2024-01-30T08:41:13;19.92;;;13.27;;
52180;SDS011;38158;53.338;6.514;2024-01-30T08:43:38;19.85;;;12.45;;
52180;SDS011;38158;53.338;6.514;2024-01-30T08:46:04;15.63;;;12.48;;
52180;SDS011;38158;53.338;6.514;2024-01-30T08:48:30;19.17;;;13.85;;
52180;SDS011;38158;53.338;6.514;2024-01-30T08:50:55;17.52;;;13.10;;
52180;SDS011;38158;53.338;6.514;2024-01-30T08:53:21;19.08;;;12.98;;
52180;SDS011;38158;53.338;6.514;2024-01-30T08:55:47;17.65;;;12.48;;
52180;SDS011;38158;53.338;6.514;2024-01-30T08:58:13;15.55;;;12.00;;
52180;SDS011;38158;53.338;6.514;2024-01-30T09:00:38;18.45;;;12.57;;
52180;SDS011;38158;53.338;6.514;2024-01-30T09:03:04;18.77;;;11.95;;
52180;SDS011;38158;53.338;6.514;2024-01-30T09:05:30;21.20;;;12.90;;
52180;SDS011;38158;53.338;6.514;2024-01-30T09:07:55;20.00;;;12.60;;
52180;SDS011;38158;53.338;6.514;2024-01-30T09:10:21;17.30;;;12.35;;
52180;SDS011;38158;53.338;6.514;2024-01-30T09:12:47;17.33;;;12.13;;
52180;SDS011;38158;53.338;6.514;2024-01-30T09:15:13;19.58;;;12.10;;
52180;SDS011;38158;53.338;6.514;2024-01-30T09:17:39;16.45;;;11.52;;
52180;SDS011;38158;53.338;6.514;2024-01-30T09:20:05;18.00;;;11.75;;
52180;SDS011;38158;53.338;6.514;2024-01-30T09:22:31;16.63;;;10.77;;
52180;SDS011;38158;53.338;6.514;2024-01-30T09:24:57;17.02;;;11.50;;
52180;SDS011;38158;53.338;6.514;2024-01-30T09:27:23;23.92;;;11.50;;
52180;SDS011;38158;53.338;6.514;2024-01-30T09:29:48;16.13;;;11.85;;
52180;SDS011;38158;53.338;6.514;2024-01-30T09:32:14;16.25;;;11.38;;
52180;SDS011;38158;53.338;6.514;2024-01-30T09:34:40;16.73;;;11.32;;
52180;SDS011;38158;53.338;6.514;2024-01-30T09:37:06;18.13;;;12.05;;
52180;SDS011;38158;53.338;6.514;2024-01-30T09:39:32;17.60;;;11.88;;
52180;SDS011;38158;53.338;6.514;2024-01-30T09:44:44;17.10;;;11.40;;
52180;SDS011;38158;53.338;6.514;2024-01-30T09:47:12;16.38;;;11.63;;
52180;SDS011;38158;53.338;6.514;2024-01-30T09:49:38;17.00;;;10.75;;
52180;SDS011;38158;53.338;6.514;2024-01-30T09:52:06;16.90;;;11.13;;
52180;SDS011;38158;53.338;6.514;2024-01-30T09:54:32;15.98;;;10.90;;
52180;SDS011;38158;53.338;6.514;2024-01-30T09:57:00;17.10;;;11.45;;
52180;SDS011;38158;53.338;6.514;2024-01-30T09:59:25;20.25;;;11.15;;
52180;SDS011;38158;53.338;6.514;2024-01-30T10:01:51;15.52;;;10.95;;
52180;SDS011;38158;53.338;6.514;2024-01-30T10:04:17;17.30;;;10.45;;
52180;SDS011;38158;53.338;6.514;2024-01-30T10:06:46;16.83;;;10.85;;
52180;SDS011;38158;53.338;6.514;2024-01-30T10:09:12;14.55;;;9.52;;
52180;SDS011;38158;53.338;6.514;2024-01-30T10:11:38;15.85;;;10.43;;
52180;SDS011;38158;53.338;6.514;2024-01-30T10:14:04;16.52;;;11.15;;
52180;SDS011;38158;53.338;6.514;2024-01-30T10:16:30;15.85;;;11.60;;
52180;SDS011;38158;53.338;6.514;2024-01-30T10:18:56;17.13;;;11.63;;
52180;SDS011;38158;53.338;6.514;2024-01-30T10:21:21;21.77;;;12.35;;
52180;SDS011;38158;53.338;6.514;2024-01-30T10:23:47;18.73;;;11.48;;
52180;SDS011;38158;53.338;6.514;2024-01-30T10:26:15;16.20;;;10.52;;
52180;SDS011;38158;53.338;6.514;2024-01-30T10:28:42;15.55;;;10.60;;
52180;SDS011;38158;53.338;6.514;2024-01-30T10:31:08;16.23;;;9.75;;
52180;SDS011;38158;53.338;6.514;2024-01-30T10:33:34;17.92;;;10.68;;
52180;SDS011;38158;53.338;6.514;2024-01-30T10:36:01;15.20;;;11.63;;
52180;SDS011;38158;53.338;6.514;2024-01-30T10:38:29;19.05;;;11.38;;
52180;SDS011;38158;53.338;6.514;2024-01-30T10:41:01;17.30;;;11.27;;
52180;SDS011;38158;53.338;6.514;2024-01-30T10:43:39;17.70;;;11.25;;
52180;SDS011;38158;53.338;6.514;2024-01-30T10:46:11;18.20;;;11.15;;
52180;SDS011;38158;53.338;6.514;2024-01-30T10:48:56;18.92;;;11.75;;
52180;SDS011;38158;53.338;6.514;2024-01-30T10:51:26;16.00;;;11.15;;
52180;SDS011;38158;53.338;6.514;2024-01-30T10:53:52;20.83;;;11.88;;
52180;SDS011;38158;53.338;6.514;2024-01-30T10:56:22;17.30;;;11.50;;
52180;SDS011;38158;53.338;6.514;2024-01-30T10:58:49;18.08;;;11.68;;
52180;SDS011;38158;53.338;6.514;2024-01-30T11:01:17;16.52;;;10.35;;
52180;SDS011;38158;53.338;6.514;2024-01-30T11:03:50;17.38;;;11.07;;
52180;SDS011;38158;53.338;6.514;2024-01-30T11:08:45;11.85;;;7.57;;
52180;SDS011;38158;53.338;6.514;2024-01-30T11:11:14;14.02;;;6.13;;
52180;SDS011;38158;53.338;6.514;2024-01-30T11:16:08;12.38;;;7.57;;
52180;SDS011;38158;53.338;6.514;2024-01-30T11:18:36;13.73;;;7.95;;
52180;SDS011;38158;53.338;6.514;2024-01-30T11:21:04;11.05;;;6.53;;
52180;SDS011;38158;53.338;6.514;2024-01-30T11:23:30;13.82;;;6.88;;
52180;SDS011;38158;53.338;6.514;2024-01-30T11:25:58;14.85;;;6.20;;
52180;SDS011;38158;53.338;6.514;2024-01-30T11:28:24;14.70;;;6.25;;
52180;SDS011;38158;53.338;6.514;2024-01-30T11:30:49;13.00;;;6.22;;
52180;SDS011;38158;53.338;6.514;2024-01-30T11:33:28;11.90;;;4.70;;
52180;SDS011;38158;53.338;6.514;2024-01-30T11:35:58;9.20;;;4.43;;
52180;SDS011;38158;53.338;6.514;2024-01-30T11:38:27;13.32;;;5.60;;
52180;SDS011;38158;53.338;6.514;2024-01-30T11:40:56;11.48;;;5.50;;
52180;SDS011;38158;53.338;6.514;2024-01-30T11:43:22;11.65;;;5.47;;
52180;SDS011;38158;53.338;6.514;2024-01-30T11:45:48;15.43;;;5.47;;
52180;SDS011;38158;53.338;6.514;2024-01-30T11:48:14;10.10;;;4.47;;
52180;SDS011;38158;53.338;6.514;2024-01-30T11:50:40;11.25;;;5.18;;
52180;SDS011;38158;53.338;6.514;2024-01-30T11:53:06;9.90;;;4.63;;
52180;SDS011;38158;53.338;6.514;2024-01-30T11:55:32;12.75;;;4.18;;
52180;SDS011;38158;53.338;6.514;2024-01-30T11:57:59;15.25;;;5.03;;
52180;SDS011;38158;53.338;6.514;2024-01-30T12:00:25;13.25;;;4.57;;
52180;SDS011;38158;53.338;6.514;2024-01-30T12:02:52;9.45;;;3.50;;
52180;SDS011;38158;53.338;6.514;2024-01-30T12:05:24;9.00;;;3.88;;
52180;SDS011;38158;53.338;6.514;2024-01-30T12:07:50;9.77;;;3.63;;
52180;SDS011;38158;53.338;6.514;2024-01-30T12:10:17;12.75;;;4.00;;
52180;SDS011;38158;53.338;6.514;2024-01-30T12:12:43;13.33;;;3.33;;
52180;SDS011;38158;53.338;6.514;2024-01-30T12:15:14;10.15;;;2.50;;
52180;SDS011;38158;53.338;6.514;2024-01-30T12:17:40;5.63;;;2.08;;
52180;SDS011;38158;53.338;6.514;2024-01-30T12:20:07;6.57;;;1.90;;
52180;SDS011;38158;53.338;6.514;2024-01-30T12:22:40;5.40;;;1.70;;
52180;SDS011;38158;53.338;6.514;2024-01-30T12:25:08;5.22;;;1.35;;
52180;SDS011;38158;53.338;6.514;2024-01-30T12:27:44;5.00;;;1.70;;
52180;SDS011;38158;53.338;6.514;2024-01-30T12:30:14;6.15;;;1.67;;
52180;SDS011;38158;53.338;6.514;2024-01-30T12:32:43;5.15;;;1.17;;
52180;SDS011;38158;53.338;6.514;2024-01-30T12:37:40;8.18;;;1.75;;
52180;SDS011;38158;53.338;6.514;2024-01-30T12:40:09;8.13;;;1.88;;
52180;SDS011;38158;53.338;6.514;2024-01-30T12:42:38;3.78;;;1.50;;
52180;SDS011;38158;53.338;6.514;2024-01-30T12:45:04;5.22;;;1.63;;
52180;SDS011;38158;53.338;6.514;2024-01-30T12:47:30;2.80;;;0.60;;
52180;SDS011;38158;53.338;6.514;2024-01-30T12:49:56;3.15;;;1.42;;
52180;SDS011;38158;53.338;6.514;2024-01-30T12:52:22;3.28;;;0.60;;
52180;SDS011;38158;53.338;6.514;2024-01-30T12:54:48;2.85;;;0.88;;
52180;SDS011;38158;53.338;6.514;2024-01-30T12:57:14;5.83;;;0.90;;
52180;SDS011;38158;53.338;6.514;2024-01-30T12:59:41;1.95;;;0.57;;
52180;SDS011;38158;53.338;6.514;2024-01-30T13:02:07;2.70;;;0.60;;
52180;SDS011;38158;53.338;6.514;2024-01-30T13:04:33;2.78;;;0.70;;
52180;SDS011;38158;53.338;6.514;2024-01-30T13:06:59;2.97;;;0.80;;
52180;SDS011;38158;53.338;6.514;2024-01-30T13:09:25;2.80;;;0.70;;
52180;SDS011;38158;53.338;6.514;2024-01-30T13:11:51;3.85;;;0.80;;
52180;SDS011;38158;53.338;6.514;2024-01-30T13:14:18;3.58;;;0.90;;
52180;SDS011;38158;53.338;6.514;2024-01-30T13:16:43;4.18;;;1.05;;
52180;SDS011;38158;53.338;6.514;2024-01-30T13:19:09;3.42;;;0.80;;
52180;SDS011;38158;53.338;6.514;2024-01-30T13:21:35;4.60;;;1.10;;
52180;SDS011;38158;53.338;6.514;2024-01-30T13:24:01;3.38;;;0.90;;
52180;SDS011;38158;53.338;6.514;2024-01-30T13:26:26;3.55;;;1.42;;
52180;SDS011;38158;53.338;6.514;2024-01-30T13:28:52;3.47;;;1.10;;
52180;SDS011;38158;53.338;6.514;2024-01-30T13:31:18;4.88;;;1.20;;
52180;SDS011;38158;53.338;6.514;2024-01-30T13:33:44;3.53;;;1.17;;
52180;SDS011;38158;53.338;6.514;2024-01-30T13:36:10;2.97;;;0.93;;
52180;SDS011;38158;53.338;6.514;2024-01-30T13:38:36;2.55;;;0.70;;
52180;SDS011;38158;53.338;6.514;2024-01-30T13:41:02;3.33;;;1.08;;
52180;SDS011;38158;53.338;6.514;2024-01-30T13:43:28;3.83;;;0.95;;
52180;SDS011;38158;53.338;6.514;2024-01-30T13:45:54;4.10;;;1.25;;
52180;SDS011;38158;53.338;6.514;2024-01-30T13:48:20;3.10;;;0.85;;
52180;SDS011;38158;53.338;6.514;2024-01-30T13:50:46;2.27;;;1.10;;
52180;SDS011;38158;53.338;6.514;2024-01-30T13:53:12;2.92;;;1.08;;
52180;SDS011;38158;53.338;6.514;2024-01-30T13:55:38;3.78;;;1.10;;
52180;SDS011;38158;53.338;6.514;2024-01-30T13:58:04;4.80;;;1.17;;
52180;SDS011;38158;53.338;6.514;2024-01-30T14:00:30;4.15;;;1.25;;
52180;SDS011;38158;53.338;6.514;2024-01-30T14:02:56;4.30;;;1.50;;
52180;SDS011;38158;53.338;6.514;2024-01-30T14:05:25;3.90;;;1.35;;
52180;SDS011;38158;53.338;6.514;2024-01-30T14:07:52;4.25;;;0.88;;
52180;SDS011;38158;53.338;6.514;2024-01-30T14:10:18;3.80;;;1.00;;
52180;SDS011;38158;53.338;6.514;2024-01-30T14:12:44;5.07;;;1.10;;
52180;SDS011;38158;53.338;6.514;2024-01-30T14:15:10;4.53;;;1.30;;
52180;SDS011;38158;53.338;6.514;2024-01-30T14:17:37;1.73;;;0.95;;
52180;SDS011;38158;53.338;6.514;2024-01-30T14:20:03;4.03;;;1.10;;
52180;SDS011;38158;53.338;6.514;2024-01-30T14:22:30;5.05;;;1.48;;
52180;SDS011;38158;53.338;6.514;2024-01-30T14:24:56;2.77;;;0.97;;
52180;SDS011;38158;53.338;6.514;2024-01-30T14:27:22;4.75;;;1.25;;
52180;SDS011;38158;53.338;6.514;2024-01-30T14:29:47;3.00;;;0.90;;
52180;SDS011;38158;53.338;6.514;2024-01-30T14:32:13;5.13;;;1.02;;
52180;SDS011;38158;53.338;6.514;2024-01-30T14:34:39;4.43;;;1.27;;
52180;SDS011;38158;53.338;6.514;2024-01-30T14:37:04;1.80;;;0.80;;